Weather at Seattle Tacoma International Airport

Public forecast

Using degrees Fahrenheit for public forecast. Weather courtesy of forecast.io.

Current aviation weather report (METAR) for Seattle Tacoma International Airport

Retrieved 2021/07/27 08:53 UTC (27 minutes ago):

KSEA 270853Z 03008KT 10SM SCT250 19/13 A3000 RMK AO2 SLP163 T01890128 53009

Aviation forecast (TAF) for Seattle Tacoma International Airport

Retrieved 2021/07/27 06:39 UTC (3 hours ago):

TAF KSEA 270537Z 2706/2812 02006KT P6SM BKN250 FM271400 VRB03KT P6SM SCT006 FM271800 31008KT P6SM SCT250 FM280300 01008KT P6SM SCT250